Skip Navigation Links Skip Navigation Links

Current Weather

Central Park, New York

For information only: do not use for flight planning or navigation.
Latest weather
Observation time Wednesday, October 27, 2021 2:51 AM EDT
Local time Wednesday, October 27, 2021 3:51 AM EDT
Flight conditions Visual Meteorological Conditions
Winds
Wind direction variable
Wind speed 6 mph
Visibility 7 mi.
Present weather light rain
Sky condition
Ceiling 7,500 ft. overcast
Cloud layer scattered clouds 1,600 ft.
Cloud layer scattered clouds 5,000 ft.
Cloud layer overcast 7,500 ft.
Temperature 54°F
Dewpoint 52°F
Altimeter 29.52 in.Hg
Precipitation
Precipitation last hour 0.04 in.
Derived measurements
Relative humidity 93%
Density altitude 473 ft.
Sea-level pressure 29.49 in.Hg
Remarks
Fully automated report.
Automated weather observing station with precipitation discriminator.
METAR KNYC 270651Z AUTO VRB05KT 7SM -RA SCT016 SCT050 OVC075 12/11 A2952 RMK AO2 SLP987 P0004 T01220111

Settings

Location code

InnerDrive.Weather 4.0.6770.0 Release CLR 4.0.30319.42000
Copyright ©2018 Inner Drive Technology. All rights reserved. Portions Copyright ©1986-2018 David Braverman.

Find weather

Site navigation


Skip Navigation Links

Place info

Page info

PayPal - The safer, easier way to pay online!

Return home.

Copyright ©2021 Inner Drive Technology. Purveyors of fine, hand-crafted computer software. Page printed 2021-10-27T07:51:16 UTC.